sensor_id;sensor_type;location;lat;lon;timestamp;P1;durP1;ratioP1;P2;durP2;ratioP2
18200;SDS011;9226;47.858;9.594;2023-11-21T00:01:51;9.83;;;1.50;;
18200;SDS011;9226;47.858;9.594;2023-11-21T00:04:17;3.30;;;1.30;;
18200;SDS011;9226;47.858;9.594;2023-11-21T00:06:42;3.80;;;1.37;;
18200;SDS011;9226;47.858;9.594;2023-11-21T00:09:07;4.50;;;1.40;;
18200;SDS011;9226;47.858;9.594;2023-11-21T00:11:33;5.73;;;1.30;;
18200;SDS011;9226;47.858;9.594;2023-11-21T00:13:59;5.60;;;1.40;;
18200;SDS011;9226;47.858;9.594;2023-11-21T00:16:24;3.73;;;1.20;;
18200;SDS011;9226;47.858;9.594;2023-11-21T00:18:50;7.20;;;1.43;;
18200;SDS011;9226;47.858;9.594;2023-11-21T00:21:16;7.30;;;1.50;;
18200;SDS011;9226;47.858;9.594;2023-11-21T00:23:41;6.63;;;1.53;;
18200;SDS011;9226;47.858;9.594;2023-11-21T00:26:07;4.60;;;1.40;;
18200;SDS011;9226;47.858;9.594;2023-11-21T00:28:32;8.83;;;1.70;;
18200;SDS011;9226;47.858;9.594;2023-11-21T00:30:58;7.37;;;1.50;;
18200;SDS011;9226;47.858;9.594;2023-11-21T00:33:23;8.70;;;1.80;;
18200;SDS011;9226;47.858;9.594;2023-11-21T00:35:50;8.47;;;1.60;;
18200;SDS011;9226;47.858;9.594;2023-11-21T00:38:15;7.63;;;1.43;;
18200;SDS011;9226;47.858;9.594;2023-11-21T00:40:44;6.57;;;1.50;;
18200;SDS011;9226;47.858;9.594;2023-11-21T00:43:10;9.13;;;1.53;;
18200;SDS011;9226;47.858;9.594;2023-11-21T00:45:36;6.87;;;1.30;;
18200;SDS011;9226;47.858;9.594;2023-11-21T00:48:01;4.67;;;1.30;;
18200;SDS011;9226;47.858;9.594;2023-11-21T00:50:29;5.23;;;1.60;;
18200;SDS011;9226;47.858;9.594;2023-11-21T00:52:55;6.27;;;1.30;;
18200;SDS011;9226;47.858;9.594;2023-11-21T00:55:20;4.60;;;1.20;;
18200;SDS011;9226;47.858;9.594;2023-11-21T00:57:46;3.10;;;1.07;;
18200;SDS011;9226;47.858;9.594;2023-11-21T01:00:11;4.70;;;1.90;;
18200;SDS011;9226;47.858;9.594;2023-11-21T01:02:42;6.03;;;1.50;;
18200;SDS011;9226;47.858;9.594;2023-11-21T01:05:09;5.97;;;1.27;;
18200;SDS011;9226;47.858;9.594;2023-11-21T01:07:35;5.30;;;1.40;;
18200;SDS011;9226;47.858;9.594;2023-11-21T01:10:02;7.07;;;1.10;;
18200;SDS011;9226;47.858;9.594;2023-11-21T01:12:30;3.77;;;1.77;;
18200;SDS011;9226;47.858;9.594;2023-11-21T01:14:56;5.03;;;1.43;;
18200;SDS011;9226;47.858;9.594;2023-11-21T01:17:22;3.27;;;1.10;;
18200;SDS011;9226;47.858;9.594;2023-11-21T01:19:48;8.67;;;1.20;;
18200;SDS011;9226;47.858;9.594;2023-11-21T01:22:13;1.87;;;1.20;;
18200;SDS011;9226;47.858;9.594;2023-11-21T01:24:39;6.13;;;1.50;;
18200;SDS011;9226;47.858;9.594;2023-11-21T01:27:04;2.87;;;1.27;;
18200;SDS011;9226;47.858;9.594;2023-11-21T01:29:30;7.63;;;1.10;;
18200;SDS011;9226;47.858;9.594;2023-11-21T01:31:55;4.17;;;1.30;;
18200;SDS011;9226;47.858;9.594;2023-11-21T01:34:22;3.23;;;1.23;;
18200;SDS011;9226;47.858;9.594;2023-11-21T01:36:48;8.10;;;1.40;;
18200;SDS011;9226;47.858;9.594;2023-11-21T01:39:13;5.27;;;1.23;;
18200;SDS011;9226;47.858;9.594;2023-11-21T01:41:41;8.37;;;1.87;;
18200;SDS011;9226;47.858;9.594;2023-11-21T01:44:09;3.17;;;1.10;;
18200;SDS011;9226;47.858;9.594;2023-11-21T01:46:35;6.20;;;1.17;;
18200;SDS011;9226;47.858;9.594;2023-11-21T01:49:00;6.07;;;1.33;;
18200;SDS011;9226;47.858;9.594;2023-11-21T01:51:26;3.83;;;1.10;;
18200;SDS011;9226;47.858;9.594;2023-11-21T01:53:51;2.87;;;1.20;;
18200;SDS011;9226;47.858;9.594;2023-11-21T01:56:17;7.73;;;1.50;;
18200;SDS011;9226;47.858;9.594;2023-11-21T01:58:43;4.30;;;1.30;;
18200;SDS011;9226;47.858;9.594;2023-11-21T02:01:08;3.20;;;0.93;;
18200;SDS011;9226;47.858;9.594;2023-11-21T02:03:35;4.90;;;1.43;;
18200;SDS011;9226;47.858;9.594;2023-11-21T02:06:01;3.17;;;1.10;;
18200;SDS011;9226;47.858;9.594;2023-11-21T02:08:26;5.60;;;1.20;;
18200;SDS011;9226;47.858;9.594;2023-11-21T02:10:52;7.73;;;1.20;;
18200;SDS011;9226;47.858;9.594;2023-11-21T02:13:17;3.43;;;1.17;;
18200;SDS011;9226;47.858;9.594;2023-11-21T02:15:43;7.20;;;1.30;;
18200;SDS011;9226;47.858;9.594;2023-11-21T02:18:08;7.20;;;1.60;;
18200;SDS011;9226;47.858;9.594;2023-11-21T02:20:36;8.90;;;1.30;;
18200;SDS011;9226;47.858;9.594;2023-11-21T02:23:03;3.50;;;1.27;;
18200;SDS011;9226;47.858;9.594;2023-11-21T02:25:30;5.13;;;1.23;;
18200;SDS011;9226;47.858;9.594;2023-11-21T02:27:58;5.23;;;1.33;;
18200;SDS011;9226;47.858;9.594;2023-11-21T02:30:25;9.13;;;1.10;;
18200;SDS011;9226;47.858;9.594;2023-11-21T02:32:52;7.27;;;1.47;;
18200;SDS011;9226;47.858;9.594;2023-11-21T02:35:18;6.63;;;1.17;;
18200;SDS011;9226;47.858;9.594;2023-11-21T02:37:46;3.13;;;1.30;;
18200;SDS011;9226;47.858;9.594;2023-11-21T02:40:12;6.13;;;1.30;;
18200;SDS011;9226;47.858;9.594;2023-11-21T02:42:39;5.00;;;1.20;;
18200;SDS011;9226;47.858;9.594;2023-11-21T02:45:06;3.27;;;1.27;;
18200;SDS011;9226;47.858;9.594;2023-11-21T02:47:32;9.70;;;1.30;;
18200;SDS011;9226;47.858;9.594;2023-11-21T02:49:58;3.53;;;1.30;;
18200;SDS011;9226;47.858;9.594;2023-11-21T02:52:24;6.30;;;1.30;;
18200;SDS011;9226;47.858;9.594;2023-11-21T02:54:50;5.87;;;1.13;;
18200;SDS011;9226;47.858;9.594;2023-11-21T02:57:16;1.70;;;1.13;;
18200;SDS011;9226;47.858;9.594;2023-11-21T02:59:41;6.93;;;1.30;;
18200;SDS011;9226;47.858;9.594;2023-11-21T03:02:07;2.73;;;1.10;;
18200;SDS011;9226;47.858;9.594;2023-11-21T03:04:33;2.57;;;1.10;;
18200;SDS011;9226;47.858;9.594;2023-11-21T03:06:59;2.53;;;1.20;;
18200;SDS011;9226;47.858;9.594;2023-11-21T03:09:25;6.30;;;1.20;;
18200;SDS011;9226;47.858;9.594;2023-11-21T03:11:51;6.57;;;1.10;;
18200;SDS011;9226;47.858;9.594;2023-11-21T03:14:17;4.87;;;1.27;;
18200;SDS011;9226;47.858;9.594;2023-11-21T03:16:43;4.60;;;0.97;;
18200;SDS011;9226;47.858;9.594;2023-11-21T03:19:10;2.97;;;1.20;;
18200;SDS011;9226;47.858;9.594;2023-11-21T03:21:35;6.53;;;0.87;;
18200;SDS011;9226;47.858;9.594;2023-11-21T03:24:01;2.30;;;0.80;;
18200;SDS011;9226;47.858;9.594;2023-11-21T03:26:27;2.03;;;0.70;;
18200;SDS011;9226;47.858;9.594;2023-11-21T03:28:52;1.93;;;0.77;;
18200;SDS011;9226;47.858;9.594;2023-11-21T03:31:18;3.67;;;0.73;;
18200;SDS011;9226;47.858;9.594;2023-11-21T03:33:44;2.13;;;0.80;;
18200;SDS011;9226;47.858;9.594;2023-11-21T03:36:10;2.07;;;0.80;;
18200;SDS011;9226;47.858;9.594;2023-11-21T03:38:36;1.30;;;0.80;;
18200;SDS011;9226;47.858;9.594;2023-11-21T03:41:02;4.13;;;1.20;;
18200;SDS011;9226;47.858;9.594;2023-11-21T03:43:28;4.03;;;0.90;;
18200;SDS011;9226;47.858;9.594;2023-11-21T03:45:54;2.37;;;1.43;;
18200;SDS011;9226;47.858;9.594;2023-11-21T03:48:19;1.43;;;0.87;;
18200;SDS011;9226;47.858;9.594;2023-11-21T03:50:45;2.47;;;1.10;;
18200;SDS011;9226;47.858;9.594;2023-11-21T03:53:12;2.30;;;0.93;;
18200;SDS011;9226;47.858;9.594;2023-11-21T03:55:37;5.53;;;1.00;;
18200;SDS011;9226;47.858;9.594;2023-11-21T03:58:03;1.30;;;0.70;;
18200;SDS011;9226;47.858;9.594;2023-11-21T04:00:28;3.10;;;0.80;;
18200;SDS011;9226;47.858;9.594;2023-11-21T04:02:53;1.10;;;0.63;;
18200;SDS011;9226;47.858;9.594;2023-11-21T04:05:20;2.70;;;0.90;;
18200;SDS011;9226;47.858;9.594;2023-11-21T04:07:49;0.90;;;0.57;;
18200;SDS011;9226;47.858;9.594;2023-11-21T04:10:16;0.57;;;0.57;;
18200;SDS011;9226;47.858;9.594;2023-11-21T04:12:41;1.03;;;0.60;;
18200;SDS011;9226;47.858;9.594;2023-11-21T04:15:07;2.37;;;1.17;;
18200;SDS011;9226;47.858;9.594;2023-11-21T04:17:34;2.17;;;0.80;;
18200;SDS011;9226;47.858;9.594;2023-11-21T04:20:00;3.90;;;0.70;;
18200;SDS011;9226;47.858;9.594;2023-11-21T04:22:25;3.47;;;0.73;;
18200;SDS011;9226;47.858;9.594;2023-11-21T04:24:50;1.00;;;0.77;;
18200;SDS011;9226;47.858;9.594;2023-11-21T04:27:16;1.40;;;0.70;;
18200;SDS011;9226;47.858;9.594;2023-11-21T04:29:44;7.00;;;1.17;;
18200;SDS011;9226;47.858;9.594;2023-11-21T04:32:10;2.07;;;0.80;;
18200;SDS011;9226;47.858;9.594;2023-11-21T04:34:35;3.47;;;1.00;;
18200;SDS011;9226;47.858;9.594;2023-11-21T04:37:01;2.03;;;0.97;;
18200;SDS011;9226;47.858;9.594;2023-11-21T04:39:26;2.53;;;1.10;;
18200;SDS011;9226;47.858;9.594;2023-11-21T04:41:52;1.27;;;0.73;;
18200;SDS011;9226;47.858;9.594;2023-11-21T04:44:17;2.90;;;1.30;;
18200;SDS011;9226;47.858;9.594;2023-11-21T04:46:42;2.00;;;1.00;;
18200;SDS011;9226;47.858;9.594;2023-11-21T04:49:08;1.60;;;0.70;;
18200;SDS011;9226;47.858;9.594;2023-11-21T04:51:34;2.03;;;0.70;;
18200;SDS011;9226;47.858;9.594;2023-11-21T04:53:59;1.00;;;0.67;;
18200;SDS011;9226;47.858;9.594;2023-11-21T04:56:24;2.03;;;0.63;;
18200;SDS011;9226;47.858;9.594;2023-11-21T04:58:50;4.10;;;0.90;;
18200;SDS011;9226;47.858;9.594;2023-11-21T05:01:15;5.90;;;0.93;;
18200;SDS011;9226;47.858;9.594;2023-11-21T05:03:41;4.37;;;1.10;;
18200;SDS011;9226;47.858;9.594;2023-11-21T05:06:09;29.47;;;7.70;;
18200;SDS011;9226;47.858;9.594;2023-11-21T05:08:35;20.27;;;4.60;;
18200;SDS011;9226;47.858;9.594;2023-11-21T05:11:02;26.00;;;7.30;;
18200;SDS011;9226;47.858;9.594;2023-11-21T05:13:27;13.23;;;3.93;;
18200;SDS011;9226;47.858;9.594;2023-11-21T05:15:54;5.63;;;1.70;;
18200;SDS011;9226;47.858;9.594;2023-11-21T05:18:21;4.90;;;2.33;;
18200;SDS011;9226;47.858;9.594;2023-11-21T05:20:46;9.30;;;2.90;;
18200;SDS011;9226;47.858;9.594;2023-11-21T05:23:12;4.37;;;1.87;;
18200;SDS011;9226;47.858;9.594;2023-11-21T05:25:37;4.07;;;2.03;;
18200;SDS011;9226;47.858;9.594;2023-11-21T05:28:03;3.87;;;1.43;;
18200;SDS011;9226;47.858;9.594;2023-11-21T05:30:29;1.47;;;0.80;;
18200;SDS011;9226;47.858;9.594;2023-11-21T05:32:54;4.53;;;1.00;;
18200;SDS011;9226;47.858;9.594;2023-11-21T05:35:20;7.10;;;1.00;;
18200;SDS011;9226;47.858;9.594;2023-11-21T05:37:46;1.80;;;0.90;;
18200;SDS011;9226;47.858;9.594;2023-11-21T05:40:12;5.57;;;1.37;;
18200;SDS011;9226;47.858;9.594;2023-11-21T05:42:38;3.07;;;1.67;;
18200;SDS011;9226;47.858;9.594;2023-11-21T05:45:05;5.47;;;3.17;;
18200;SDS011;9226;47.858;9.594;2023-11-21T05:47:44;5.00;;;2.90;;
18200;SDS011;9226;47.858;9.594;2023-11-21T05:50:11;7.27;;;1.80;;
18200;SDS011;9226;47.858;9.594;2023-11-21T05:52:41;3.60;;;1.33;;
18200;SDS011;9226;47.858;9.594;2023-11-21T05:55:08;5.93;;;1.30;;
18200;SDS011;9226;47.858;9.594;2023-11-21T05:57:34;3.40;;;0.90;;
18200;SDS011;9226;47.858;9.594;2023-11-21T06:00:09;3.97;;;1.17;;
18200;SDS011;9226;47.858;9.594;2023-11-21T06:02:40;3.43;;;1.23;;
18200;SDS011;9226;47.858;9.594;2023-11-21T06:05:06;5.03;;;1.37;;
18200;SDS011;9226;47.858;9.594;2023-11-21T06:07:33;1.87;;;0.90;;
18200;SDS011;9226;47.858;9.594;2023-11-21T06:09:58;4.40;;;1.10;;
18200;SDS011;9226;47.858;9.594;2023-11-21T06:12:24;3.77;;;1.60;;
18200;SDS011;9226;47.858;9.594;2023-11-21T06:14:50;6.30;;;1.33;;
18200;SDS011;9226;47.858;9.594;2023-11-21T06:17:16;3.83;;;1.13;;
18200;SDS011;9226;47.858;9.594;2023-11-21T06:19:42;6.43;;;1.07;;
18200;SDS011;9226;47.858;9.594;2023-11-21T06:22:10;4.17;;;1.10;;
18200;SDS011;9226;47.858;9.594;2023-11-21T06:24:36;0.97;;;0.80;;
18200;SDS011;9226;47.858;9.594;2023-11-21T06:27:03;3.97;;;1.27;;
18200;SDS011;9226;47.858;9.594;2023-11-21T06:29:29;11.87;;;1.20;;
18200;SDS011;9226;47.858;9.594;2023-11-21T06:31:55;1.57;;;1.00;;
18200;SDS011;9226;47.858;9.594;2023-11-21T06:34:20;3.77;;;1.10;;
18200;SDS011;9226;47.858;9.594;2023-11-21T06:36:46;4.23;;;1.20;;
18200;SDS011;9226;47.858;9.594;2023-11-21T06:39:12;8.87;;;1.57;;
18200;SDS011;9226;47.858;9.594;2023-11-21T06:41:40;3.83;;;1.23;;
18200;SDS011;9226;47.858;9.594;2023-11-21T06:44:05;5.90;;;1.20;;
18200;SDS011;9226;47.858;9.594;2023-11-21T06:46:31;7.37;;;1.57;;
18200;SDS011;9226;47.858;9.594;2023-11-21T06:48:56;3.50;;;1.07;;
18200;SDS011;9226;47.858;9.594;2023-11-21T06:51:21;3.80;;;1.13;;
18200;SDS011;9226;47.858;9.594;2023-11-21T06:53:47;7.40;;;1.20;;
18200;SDS011;9226;47.858;9.594;2023-11-21T06:56:16;3.53;;;1.23;;
18200;SDS011;9226;47.858;9.594;2023-11-21T06:58:42;5.13;;;1.13;;
18200;SDS011;9226;47.858;9.594;2023-11-21T07:01:08;6.40;;;1.17;;
18200;SDS011;9226;47.858;9.594;2023-11-21T07:03:33;5.57;;;1.60;;
18200;SDS011;9226;47.858;9.594;2023-11-21T07:05:58;6.93;;;1.60;;
18200;SDS011;9226;47.858;9.594;2023-11-21T07:08:24;4.63;;;1.57;;
18200;SDS011;9226;47.858;9.594;2023-11-21T07:10:49;3.73;;;1.50;;
18200;SDS011;9226;47.858;9.594;2023-11-21T07:13:15;5.93;;;1.33;;
18200;SDS011;9226;47.858;9.594;2023-11-21T07:15:40;4.43;;;1.50;;
18200;SDS011;9226;47.858;9.594;2023-11-21T07:18:06;2.03;;;1.30;;
18200;SDS011;9226;47.858;9.594;2023-11-21T07:20:32;7.40;;;1.67;;
18200;SDS011;9226;47.858;9.594;2023-11-21T07:22:58;7.57;;;1.40;;
18200;SDS011;9226;47.858;9.594;2023-11-21T07:25:24;3.17;;;1.60;;
18200;SDS011;9226;47.858;9.594;2023-11-21T07:27:49;5.60;;;2.53;;
18200;SDS011;9226;47.858;9.594;2023-11-21T07:30:15;8.43;;;1.73;;
18200;SDS011;9226;47.858;9.594;2023-11-21T07:32:40;12.37;;;1.80;;
18200;SDS011;9226;47.858;9.594;2023-11-21T07:35:06;4.60;;;1.50;;
18200;SDS011;9226;47.858;9.594;2023-11-21T07:37:33;3.13;;;1.50;;
18200;SDS011;9226;47.858;9.594;2023-11-21T07:39:58;5.20;;;1.70;;
18200;SDS011;9226;47.858;9.594;2023-11-21T07:42:24;9.30;;;2.07;;
18200;SDS011;9226;47.858;9.594;2023-11-21T07:44:51;3.50;;;1.80;;
18200;SDS011;9226;47.858;9.594;2023-11-21T07:47:17;4.53;;;1.80;;
18200;SDS011;9226;47.858;9.594;2023-11-21T07:49:42;2.07;;;1.63;;
18200;SDS011;9226;47.858;9.594;2023-11-21T07:52:09;7.47;;;2.33;;
18200;SDS011;9226;47.858;9.594;2023-11-21T07:54:35;4.10;;;2.10;;
18200;SDS011;9226;47.858;9.594;2023-11-21T07:57:01;6.50;;;2.20;;
18200;SDS011;9226;47.858;9.594;2023-11-21T07:59:29;7.00;;;1.93;;
18200;SDS011;9226;47.858;9.594;2023-11-21T08:01:54;3.27;;;1.77;;
18200;SDS011;9226;47.858;9.594;2023-11-21T08:04:20;3.67;;;2.00;;
18200;SDS011;9226;47.858;9.594;2023-11-21T08:06:45;5.97;;;2.03;;
18200;SDS011;9226;47.858;9.594;2023-11-21T08:09:10;4.50;;;2.13;;
18200;SDS011;9226;47.858;9.594;2023-11-21T08:11:37;7.03;;;2.17;;
18200;SDS011;9226;47.858;9.594;2023-11-21T08:14:03;3.83;;;1.67;;
18200;SDS011;9226;47.858;9.594;2023-11-21T08:16:29;6.53;;;2.10;;
18200;SDS011;9226;47.858;9.594;2023-11-21T08:18:55;8.20;;;2.00;;
18200;SDS011;9226;47.858;9.594;2023-11-21T08:21:21;2.33;;;1.77;;
18200;SDS011;9226;47.858;9.594;2023-11-21T08:23:48;8.17;;;1.80;;
18200;SDS011;9226;47.858;9.594;2023-11-21T08:26:18;4.90;;;1.80;;
18200;SDS011;9226;47.858;9.594;2023-11-21T08:28:44;8.40;;;2.50;;
18200;SDS011;9226;47.858;9.594;2023-11-21T08:31:10;5.17;;;2.23;;
18200;SDS011;9226;47.858;9.594;2023-11-21T08:33:35;8.20;;;2.23;;
18200;SDS011;9226;47.858;9.594;2023-11-21T08:36:01;4.13;;;2.20;;
18200;SDS011;9226;47.858;9.594;2023-11-21T08:38:32;4.53;;;2.00;;
18200;SDS011;9226;47.858;9.594;2023-11-21T08:40:58;8.77;;;2.40;;
18200;SDS011;9226;47.858;9.594;2023-11-21T08:43:25;6.17;;;2.10;;
18200;SDS011;9226;47.858;9.594;2023-11-21T08:45:52;4.50;;;2.33;;
18200;SDS011;9226;47.858;9.594;2023-11-21T08:48:17;5.47;;;2.33;;
18200;SDS011;9226;47.858;9.594;2023-11-21T08:50:43;6.53;;;2.53;;
18200;SDS011;9226;47.858;9.594;2023-11-21T08:53:08;6.37;;;2.50;;
18200;SDS011;9226;47.858;9.594;2023-11-21T08:55:36;4.60;;;2.30;;
18200;SDS011;9226;47.858;9.594;2023-11-21T08:58:02;8.20;;;2.17;;
18200;SDS011;9226;47.858;9.594;2023-11-21T09:00:30;6.33;;;2.60;;
18200;SDS011;9226;47.858;9.594;2023-11-21T09:02:55;4.07;;;2.33;;
18200;SDS011;9226;47.858;9.594;2023-11-21T09:05:21;4.30;;;2.00;;
18200;SDS011;9226;47.858;9.594;2023-11-21T09:07:46;6.43;;;2.23;;
18200;SDS011;9226;47.858;9.594;2023-11-21T09:10:13;7.13;;;1.93;;
18200;SDS011;9226;47.858;9.594;2023-11-21T09:12:39;4.40;;;1.70;;
18200;SDS011;9226;47.858;9.594;2023-11-21T09:15:05;2.53;;;1.50;;
18200;SDS011;9226;47.858;9.594;2023-11-21T09:17:32;3.63;;;1.30;;
18200;SDS011;9226;47.858;9.594;2023-11-21T09:19:59;3.77;;;1.30;;
18200;SDS011;9226;47.858;9.594;2023-11-21T09:22:24;4.27;;;1.70;;
18200;SDS011;9226;47.858;9.594;2023-11-21T09:24:50;3.80;;;1.70;;
18200;SDS011;9226;47.858;9.594;2023-11-21T09:27:16;6.17;;;2.63;;
18200;SDS011;9226;47.858;9.594;2023-11-21T09:29:42;2.20;;;1.50;;
18200;SDS011;9226;47.858;9.594;2023-11-21T09:32:07;2.33;;;1.30;;
18200;SDS011;9226;47.858;9.594;2023-11-21T09:34:35;3.07;;;1.50;;
18200;SDS011;9226;47.858;9.594;2023-11-21T09:37:03;4.70;;;1.37;;
18200;SDS011;9226;47.858;9.594;2023-11-21T09:39:30;3.13;;;1.20;;
18200;SDS011;9226;47.858;9.594;2023-11-21T09:41:57;5.87;;;1.70;;
18200;SDS011;9226;47.858;9.594;2023-11-21T09:44:32;2.87;;;1.30;;
18200;SDS011;9226;47.858;9.594;2023-11-21T09:47:01;4.80;;;1.63;;
18200;SDS011;9226;47.858;9.594;2023-11-21T09:49:28;3.90;;;1.30;;
18200;SDS011;9226;47.858;9.594;2023-11-21T09:51:56;4.03;;;1.27;;
18200;SDS011;9226;47.858;9.594;2023-11-21T09:54:23;1.10;;;1.00;;
18200;SDS011;9226;47.858;9.594;2023-11-21T09:56:49;1.60;;;1.00;;
18200;SDS011;9226;47.858;9.594;2023-11-21T09:59:15;1.43;;;1.20;;
18200;SDS011;9226;47.858;9.594;2023-11-21T10:01:41;3.77;;;1.00;;
18200;SDS011;9226;47.858;9.594;2023-11-21T10:04:07;6.03;;;1.57;;
18200;SDS011;9226;47.858;9.594;2023-11-21T10:06:38;3.70;;;1.43;;
18200;SDS011;9226;47.858;9.594;2023-11-21T10:09:04;4.53;;;1.83;;
18200;SDS011;9226;47.858;9.594;2023-11-21T10:11:36;1.90;;;1.30;;
18200;SDS011;9226;47.858;9.594;2023-11-21T10:14:06;1.50;;;0.90;;
18200;SDS011;9226;47.858;9.594;2023-11-21T10:16:35;4.13;;;1.33;;
18200;SDS011;9226;47.858;9.594;2023-11-21T10:19:04;1.70;;;0.93;;
18200;SDS011;9226;47.858;9.594;2023-11-21T10:21:32;3.63;;;1.70;;
18200;SDS011;9226;47.858;9.594;2023-11-21T10:23:58;7.63;;;1.50;;
18200;SDS011;9226;47.858;9.594;2023-11-21T10:26:24;3.77;;;1.80;;
18200;SDS011;9226;47.858;9.594;2023-11-21T10:28:58;4.87;;;1.70;;
18200;SDS011;9226;47.858;9.594;2023-11-21T10:31:27;5.13;;;1.73;;
18200;SDS011;9226;47.858;9.594;2023-11-21T10:33:53;2.90;;;1.50;;
18200;SDS011;9226;47.858;9.594;2023-11-21T10:36:28;3.83;;;1.30;;
18200;SDS011;9226;47.858;9.594;2023-11-21T10:38:54;3.87;;;1.80;;
18200;SDS011;9226;47.858;9.594;2023-11-21T10:41:22;3.73;;;1.20;;
18200;SDS011;9226;47.858;9.594;2023-11-21T10:43:48;2.23;;;1.20;;
18200;SDS011;9226;47.858;9.594;2023-11-21T10:46:14;3.33;;;1.10;;
18200;SDS011;9226;47.858;9.594;2023-11-21T10:48:41;8.93;;;1.67;;
18200;SDS011;9226;47.858;9.594;2023-11-21T10:51:07;3.73;;;1.27;;
18200;SDS011;9226;47.858;9.594;2023-11-21T10:53:34;2.00;;;1.10;;
18200;SDS011;9226;47.858;9.594;2023-11-21T10:56:05;2.30;;;1.10;;
18200;SDS011;9226;47.858;9.594;2023-11-21T10:58:32;1.93;;;1.00;;
18200;SDS011;9226;47.858;9.594;2023-11-21T11:00:58;6.47;;;1.50;;
18200;SDS011;9226;47.858;9.594;2023-11-21T11:03:25;1.80;;;1.17;;
18200;SDS011;9226;47.858;9.594;2023-11-21T11:05:51;2.80;;;1.00;;
18200;SDS011;9226;47.858;9.594;2023-11-21T11:08:20;1.80;;;1.30;;
18200;SDS011;9226;47.858;9.594;2023-11-21T11:10:51;1.47;;;0.93;;
18200;SDS011;9226;47.858;9.594;2023-11-21T11:13:17;3.70;;;1.20;;
18200;SDS011;9226;47.858;9.594;2023-11-21T11:15:43;3.10;;;1.33;;
18200;SDS011;9226;47.858;9.594;2023-11-21T11:18:12;4.97;;;1.60;;
18200;SDS011;9226;47.858;9.594;2023-11-21T11:20:39;17.30;;;1.17;;
18200;SDS011;9226;47.858;9.594;2023-11-21T11:32:08;3.10;;;1.30;;
18200;SDS011;9226;47.858;9.594;2023-11-21T11:34:44;2.67;;;1.10;;
18200;SDS011;9226;47.858;9.594;2023-11-21T11:37:14;2.10;;;0.70;;
18200;SDS011;9226;47.858;9.594;2023-11-21T11:39:41;2.30;;;1.03;;
18200;SDS011;9226;47.858;9.594;2023-11-21T11:42:10;1.63;;;0.83;;
18200;SDS011;9226;47.858;9.594;2023-11-21T11:52:41;2.57;;;1.00;;
18200;SDS011;9226;47.858;9.594;2023-11-21T11:55:14;1.30;;;0.90;;
18200;SDS011;9226;47.858;9.594;2023-11-21T11:57:44;1.53;;;0.90;;
18200;SDS011;9226;47.858;9.594;2023-11-21T12:02:46;3.37;;;1.00;;
18200;SDS011;9226;47.858;9.594;2023-11-21T12:05:22;1.30;;;0.73;;
18200;SDS011;9226;47.858;9.594;2023-11-21T12:07:52;1.33;;;0.90;;
18200;SDS011;9226;47.858;9.594;2023-11-21T12:10:22;3.10;;;0.70;;
18200;SDS011;9226;47.858;9.594;2023-11-21T12:12:50;1.00;;;0.90;;
18200;SDS011;9226;47.858;9.594;2023-11-21T12:15:20;1.47;;;0.80;;
18200;SDS011;9226;47.858;9.594;2023-11-21T12:17:46;2.00;;;0.60;;
18200;SDS011;9226;47.858;9.594;2023-11-21T12:20:12;1.30;;;0.70;;
18200;SDS011;9226;47.858;9.594;2023-11-21T12:22:45;3.30;;;0.90;;
18200;SDS011;9226;47.858;9.594;2023-11-21T12:27:53;1.27;;;0.90;;
18200;SDS011;9226;47.858;9.594;2023-11-21T12:30:20;4.93;;;0.80;;
18200;SDS011;9226;47.858;9.594;2023-11-21T12:32:48;1.57;;;0.80;;
18200;SDS011;9226;47.858;9.594;2023-11-21T12:35:16;1.53;;;0.90;;
18200;SDS011;9226;47.858;9.594;2023-11-21T12:37:44;1.63;;;0.73;;
18200;SDS011;9226;47.858;9.594;2023-11-21T12:40:11;1.97;;;0.83;;
18200;SDS011;9226;47.858;9.594;2023-11-21T12:42:43;1.33;;;0.80;;
18200;SDS011;9226;47.858;9.594;2023-11-21T12:47:48;1.30;;;0.70;;
18200;SDS011;9226;47.858;9.594;2023-11-21T12:50:18;1.00;;;0.80;;
18200;SDS011;9226;47.858;9.594;2023-11-21T12:52:48;2.93;;;0.90;;
18200;SDS011;9226;47.858;9.594;2023-11-21T12:55:15;0.73;;;0.70;;
18200;SDS011;9226;47.858;9.594;2023-11-21T12:57:43;0.70;;;0.70;;
18200;SDS011;9226;47.858;9.594;2023-11-21T13:00:15;0.67;;;0.60;;
18200;SDS011;9226;47.858;9.594;2023-11-21T13:02:52;0.90;;;0.60;;
18200;SDS011;9226;47.858;9.594;2023-11-21T13:05:25;0.73;;;0.60;;
18200;SDS011;9226;47.858;9.594;2023-11-21T13:07:52;0.93;;;0.80;;
18200;SDS011;9226;47.858;9.594;2023-11-21T13:10:19;1.10;;;0.90;;
18200;SDS011;9226;47.858;9.594;2023-11-21T13:12:51;0.83;;;0.70;;
18200;SDS011;9226;47.858;9.594;2023-11-21T13:15:18;0.80;;;0.80;;
18200;SDS011;9226;47.858;9.594;2023-11-21T13:17:44;0.80;;;0.70;;
18200;SDS011;9226;47.858;9.594;2023-11-21T13:20:10;0.70;;;0.50;;
18200;SDS011;9226;47.858;9.594;2023-11-21T13:23:06;3.53;;;0.70;;
18200;SDS011;9226;47.858;9.594;2023-11-21T13:25:32;0.90;;;0.70;;
18200;SDS011;9226;47.858;9.594;2023-11-21T13:27:58;3.00;;;1.10;;
18200;SDS011;9226;47.858;9.594;2023-11-21T13:30:24;6.47;;;1.03;;
18200;SDS011;9226;47.858;9.594;2023-11-21T13:32:58;1.33;;;0.70;;
18200;SDS011;9226;47.858;9.594;2023-11-21T13:35:29;1.63;;;0.93;;
18200;SDS011;9226;47.858;9.594;2023-11-21T13:38:04;1.23;;;0.60;;
18200;SDS011;9226;47.858;9.594;2023-11-21T13:40:31;7.03;;;4.73;;
18200;SDS011;9226;47.858;9.594;2023-11-21T13:42:59;6.00;;;3.30;;
18200;SDS011;9226;47.858;9.594;2023-11-21T13:45:29;3.07;;;2.33;;
18200;SDS011;9226;47.858;9.594;2023-11-21T13:47:56;2.73;;;2.30;;
18200;SDS011;9226;47.858;9.594;2023-11-21T13:50:22;1.87;;;0.60;;
18200;SDS011;9226;47.858;9.594;2023-11-21T13:52:50;0.30;;;0.30;;
18200;SDS011;9226;47.858;9.594;2023-11-21T13:55:18;0.40;;;0.40;;
18200;SDS011;9226;47.858;9.594;2023-11-21T13:57:44;1.63;;;0.80;;
18200;SDS011;9226;47.858;9.594;2023-11-21T14:00:12;2.63;;;0.50;;
18200;SDS011;9226;47.858;9.594;2023-11-21T14:02:58;0.60;;;0.60;;
18200;SDS011;9226;47.858;9.594;2023-11-21T14:05:29;6.50;;;0.90;;
18200;SDS011;9226;47.858;9.594;2023-11-21T14:07:56;0.70;;;0.70;;
18200;SDS011;9226;47.858;9.594;2023-11-21T14:10:28;4.00;;;0.80;;
18200;SDS011;9226;47.858;9.594;2023-11-21T14:13:02;0.60;;;0.60;;
18200;SDS011;9226;47.858;9.594;2023-11-21T14:15:28;0.73;;;0.50;;
18200;SDS011;9226;47.858;9.594;2023-11-21T14:17:56;2.07;;;0.50;;
18200;SDS011;9226;47.858;9.594;2023-11-21T14:20:21;0.80;;;0.60;;
18200;SDS011;9226;47.858;9.594;2023-11-21T14:22:47;0.97;;;0.70;;
18200;SDS011;9226;47.858;9.594;2023-11-21T14:25:12;5.23;;;1.80;;
18200;SDS011;9226;47.858;9.594;2023-11-21T14:27:39;2.93;;;1.20;;
18200;SDS011;9226;47.858;9.594;2023-11-21T14:30:05;1.07;;;0.80;;
18200;SDS011;9226;47.858;9.594;2023-11-21T14:32:31;3.03;;;0.70;;
18200;SDS011;9226;47.858;9.594;2023-11-21T14:34:57;0.57;;;0.57;;
18200;SDS011;9226;47.858;9.594;2023-11-21T14:37:22;1.60;;;1.07;;
18200;SDS011;9226;47.858;9.594;2023-11-21T14:39:49;3.47;;;2.27;;
18200;SDS011;9226;47.858;9.594;2023-11-21T14:42:15;3.23;;;1.90;;
18200;SDS011;9226;47.858;9.594;2023-11-21T14:44:40;3.00;;;1.77;;
18200;SDS011;9226;47.858;9.594;2023-11-21T14:47:07;2.73;;;1.60;;
18200;SDS011;9226;47.858;9.594;2023-11-21T14:49:41;3.50;;;1.70;;
18200;SDS011;9226;47.858;9.594;2023-11-21T14:52:17;2.60;;;1.70;;
18200;SDS011;9226;47.858;9.594;2023-11-21T14:55:01;1.60;;;1.20;;
18200;SDS011;9226;47.858;9.594;2023-11-21T14:57:51;2.17;;;1.33;;
18200;SDS011;9226;47.858;9.594;2023-11-21T15:00:18;1.20;;;1.10;;
18200;SDS011;9226;47.858;9.594;2023-11-21T15:03:09;5.53;;;2.43;;
18200;SDS011;9226;47.858;9.594;2023-11-21T15:05:36;2.33;;;1.20;;
18200;SDS011;9226;47.858;9.594;2023-11-21T15:08:03;1.87;;;1.33;;
18200;SDS011;9226;47.858;9.594;2023-11-21T15:10:51;2.07;;;1.43;;
18200;SDS011;9226;47.858;9.594;2023-11-21T15:13:20;2.80;;;1.70;;
18200;SDS011;9226;47.858;9.594;2023-11-21T15:15:51;2.40;;;1.63;;
18200;SDS011;9226;47.858;9.594;2023-11-21T15:18:19;2.93;;;1.20;;
18200;SDS011;9226;47.858;9.594;2023-11-21T15:20:45;3.20;;;1.40;;
18200;SDS011;9226;47.858;9.594;2023-11-21T15:23:10;2.07;;;1.60;;
18200;SDS011;9226;47.858;9.594;2023-11-21T15:25:37;2.30;;;1.60;;